Time;durP1;ratioP1;P1;durP2;ratioP2;P2;SDS_P1;SDS_P2;PMS_P1;PMS_P2;Temp;Humidity;BMP_temperature;BMP_pressure;BME280_temperature;BME280_humidity;BME280_pressure;Samples;Min_cycle;Max_cycle;Signal;HPM_P1;HPM_P2
2022/10/26 00:01:31;;;;;;;23.77;8.37;;;;;;;17.77;61.67;99740.75;5074566;28;20192;-65
2022/10/26 00:03:57;;;;;;;20.40;8.33;;;;;;;17.78;61.65;99750.44;5074709;28;20196;-66
2022/10/26 00:06:26;;;;;;;22.20;7.40;;;;;;;17.78;61.49;99747.75;5074218;28;20196;-65
2022/10/26 00:08:54;;;;;;;19.73;7.23;;;;;;;17.79;61.36;99746.69;5074490;28;20195;-65
2022/10/26 00:11:21;;;;;;;17.30;8.13;;;;;;;17.80;61.83;99751.03;5074217;28;20699;-65
2022/10/26 00:13:48;;;;;;;20.90;8.00;;;;;;;17.78;62.26;99750.44;5074239;28;20711;-63
2022/10/26 00:16:18;;;;;;;19.97;7.90;;;;;;;17.78;62.18;99755.81;5074216;28;20246;-64
2022/10/26 00:18:46;;;;;;;21.27;6.97;;;;;;;17.76;62.27;99752.56;5074773;28;20242;-63
2022/10/26 00:21:13;;;;;;;23.43;7.30;;;;;;;17.74;62.27;99762.72;5074005;28;20661;-66
2022/10/26 00:23:40;;;;;;;19.83;6.83;;;;;;;17.70;62.10;99761.53;5074034;28;20204;-64
2022/10/26 00:26:07;;;;;;;22.03;7.77;;;;;;;17.64;62.16;99755.22;5074203;28;20249;-64
2022/10/26 00:28:34;;;;;;;18.73;7.77;;;;;;;17.63;62.30;99758.97;5071506;28;20199;-64
2022/10/26 00:31:01;;;;;;;12.93;6.47;;;;;;;17.62;62.26;99759.22;5073702;28;20191;-64
2022/10/26 00:33:30;;;;;;;15.13;6.63;;;;;;;17.54;62.43;99743.44;5073989;28;20221;-66
2022/10/26 00:35:56;;;;;;;14.93;6.40;;;;;;;17.53;62.61;99747.19;5074252;28;20192;-65
2022/10/26 00:38:23;;;;;;;19.53;7.07;;;;;;;17.50;62.40;99750.34;5074057;28;20195;-64
2022/10/26 00:40:50;;;;;;;15.70;6.10;;;;;;;17.44;61.48;99759.34;5074070;28;20195;-65
2022/10/26 00:43:34;;;;;;;10.97;4.73;;;;;;;17.22;59.69;99751.00;5073625;28;20659;-64
2022/10/26 00:46:03;;;;;;;12.50;5.60;;;;;;;17.22;58.88;99756.38;5073716;28;20203;-65
2022/10/26 00:48:37;;;;;;;15.90;5.10;;;;;;;17.28;58.80;99758.16;5074080;28;20199;-65
2022/10/26 00:51:08;;;;;;;11.70;5.23;;;;;;;17.34;58.63;99759.88;5074658;28;20590;-66
2022/10/26 00:53:35;;;;;;;9.03;4.30;;;;;;;17.46;58.14;99766.13;5073676;28;20204;-64
2022/10/26 00:56:03;;;;;;;23.13;4.73;;;;;;;17.57;57.75;99765.31;5074227;28;20192;-65
2022/10/26 00:58:30;;;;;;;13.43;3.83;;;;;;;17.68;57.46;99760.97;5073650;28;20188;-65
2022/10/26 01:00:57;;;;;;;9.47;4.47;;;;;;;17.63;57.79;99758.16;5074415;28;20196;-64
2022/10/26 01:03:24;;;;;;;16.97;4.50;;;;;;;17.53;58.19;99741.81;5073195;28;20200;-64
2022/10/26 01:05:56;;;;;;;5.80;4.50;;;;;;;17.52;58.82;99756.31;5073275;28;20196;-64
2022/10/26 01:08:24;;;;;;;10.50;4.93;;;;;;;17.55;58.90;99745.06;5073215;28;20188;-65
2022/10/26 01:10:52;;;;;;;15.07;5.27;;;;;;;17.55;59.20;99745.06;5072983;28;20663;-64
2022/10/26 01:13:19;;;;;;;14.30;4.83;;;;;;;17.53;59.68;99757.94;5073657;28;20245;-65
2022/10/26 01:15:55;;;;;;;14.07;4.33;;;;;;;17.58;59.40;99758.03;5073043;28;20732;-65
2022/10/26 01:18:30;;;;;;;13.07;4.33;;;;;;;17.62;59.15;99759.22;5072720;28;20180;-64
2022/10/26 01:21:31;;;;;;;16.10;5.27;;;;;;;17.69;58.72;99759.91;5072913;28;20648;-64
2022/10/26 01:24:18;;;;;;;16.73;5.40;;;;;;;17.62;59.62;99757.34;5073505;28;20245;-65
2022/10/26 01:27:02;;;;;;;14.23;5.83;;;;;;;17.65;59.97;99756.91;5073124;28;20241;-65
2022/10/26 01:29:50;;;;;;;14.67;4.83;;;;;;;17.72;59.68;99751.41;5072669;28;20644;-64
2022/10/26 01:32:26;;;;;;;20.73;5.20;;;;;;;17.76;59.98;99750.66;5072885;28;20250;-64
2022/10/26 01:34:58;;;;;;;14.67;4.80;;;;;;;17.91;59.54;99758.22;5072927;28;20215;-65
2022/10/26 01:37:28;;;;;;;14.00;4.70;;;;;;;18.09;59.16;99750.03;5073104;28;20238;-64
2022/10/26 01:40:02;;;;;;;18.57;5.00;;;;;;;18.16;58.68;99754.22;5074006;28;20603;-64
2022/10/26 01:42:31;;;;;;;21.47;4.83;;;;;;;18.27;58.33;99760.59;5072505;28;20210;-64
2022/10/26 01:45:03;;;;;;;8.67;4.23;;;;;;;18.36;58.27;99760.03;5072790;28;20198;-65
2022/10/26 01:47:34;;;;;;;15.03;5.13;;;;;;;18.36;57.48;99754.66;5072403;28;20188;-64
2022/10/26 01:50:03;;;;;;;13.87;4.90;;;;;;;18.34;57.24;99755.94;5072498;28;20640;-65
2022/10/26 01:52:30;;;;;;;11.67;4.90;;;;;;;18.35;57.43;99758.41;5072570;28;20545;-64
2022/10/26 01:55:01;;;;;;;12.37;4.53;;;;;;;18.26;57.34;99754.41;5072840;28;20287;-64
2022/10/26 01:57:33;;;;;;;11.67;4.77;;;;;;;18.05;57.88;99749.66;5072507;28;20193;-65
2022/10/26 02:00:05;;;;;;;13.60;4.73;;;;;;;18.00;58.19;99749.56;5072940;28;20187;-65
2022/10/26 02:02:59;;;;;;;6.93;4.57;;;;;;;18.01;58.04;99745.81;5072289;28;20249;-65
2022/10/26 02:05:44;;;;;;;11.53;4.40;;;;;;;18.08;57.67;99741.13;5072778;28;20189;-65
2022/10/26 02:08:23;;;;;;;13.40;4.80;;;;;;;18.08;57.71;99746.50;5072819;28;20184;-64
2022/10/26 02:11:02;;;;;;;22.17;6.23;;;;;;;18.13;57.20;99743.13;5072561;28;20247;-64
2022/10/26 02:13:38;;;;;;;19.53;5.47;;;;;;;17.97;57.77;99744.66;5071994;28;20191;-65
2022/10/26 02:16:16;;;;;;;15.80;5.20;;;;;;;17.97;57.72;99746.56;5072830;28;20192;-65
2022/10/26 02:18:51;;;;;;;17.60;4.83;;;;;;;17.92;57.59;99746.47;5071971;28;20191;-64
2022/10/26 02:21:21;;;;;;;12.43;5.07;;;;;;;17.94;57.54;99745.16;5072011;28;20184;-64
2022/10/26 02:23:49;;;;;;;15.97;4.10;;;;;;;18.08;57.16;99756.44;5072715;28;20246;-65
2022/10/26 02:26:21;;;;;;;12.10;4.83;;;;;;;18.02;57.60;99752.03;5071926;28;20717;-65
2022/10/26 02:28:50;;;;;;;11.40;4.83;;;;;;;18.06;57.61;99759.41;5066284;28;20177;-64
2022/10/26 02:31:19;;;;;;;16.80;5.00;;;;;;;18.06;57.89;99756.72;5062190;28;20732;-64
2022/10/26 02:33:51;;;;;;;14.37;4.60;;;;;;;18.12;57.76;99758.44;5071594;28;20247;-64
2022/10/26 02:36:24;;;;;;;11.10;4.43;;;;;;;18.15;57.44;99752.59;5072741;28;20599;-65
2022/10/26 02:38:53;;;;;;;17.27;4.87;;;;;;;18.20;57.27;99757.22;5072858;28;20184;-65
2022/10/26 02:41:21;;;;;;;10.87;4.50;;;;;;;18.27;57.06;99752.53;5072608;28;20273;-65
2022/10/26 02:43:54;;;;;;;13.37;4.33;;;;;;;18.32;56.65;99758.00;5071674;28;20657;-65
2022/10/26 02:46:24;;;;;;;9.97;4.60;;;;;;;18.35;56.29;99758.41;5071800;28;20247;-64
2022/10/26 02:48:53;;;;;;;13.20;5.13;;;;;;;18.44;56.13;99764.19;5072559;28;20184;-64
2022/10/26 02:51:29;;;;;;;10.23;4.73;;;;;;;18.32;56.57;99763.38;5071668;28;20213;-64
2022/10/26 02:54:02;;;;;;;13.10;4.37;;;;;;;18.26;57.14;99775.13;5071472;28;20606;-64
2022/10/26 02:56:35;;;;;;;15.37;5.23;;;;;;;18.28;57.05;99767.59;5072031;28;20186;-64
2022/10/26 02:59:05;;;;;;;13.63;5.43;;;;;;;18.21;57.33;99767.75;5071567;28;20180;-64
2022/10/26 03:01:33;;;;;;;16.90;5.20;;;;;;;18.19;57.29;99763.66;5071618;28;20197;-64
2022/10/26 03:04:02;;;;;;;20.43;4.90;;;;;;;18.26;57.16;99767.03;5071749;28;20257;-65
2022/10/26 03:06:28;;;;;;;13.93;4.80;;;;;;;18.27;56.92;99769.50;5071803;28;20249;-65
2022/10/26 03:08:55;;;;;;;7.87;4.30;;;;;;;18.37;56.53;99768.88;5071633;28;20253;-65
2022/10/26 03:11:22;;;;;;;17.43;4.30;;;;;;;18.47;56.10;99767.25;5071626;28;20712;-64
2022/10/26 03:13:48;;;;;;;8.50;4.37;;;;;;;18.50;56.17;99764.03;5071629;28;20245;-64
2022/10/26 03:16:15;;;;;;;12.13;4.40;;;;;;;18.56;55.90;99764.97;5071782;28;20251;-64
2022/10/26 03:18:42;;;;;;;14.53;4.33;;;;;;;18.52;54.82;99770.03;5071351;28;20198;-64
2022/10/26 03:21:10;;;;;;;8.83;4.50;;;;;;;18.51;54.27;99771.09;5071337;28;20255;-64
2022/10/26 03:23:36;;;;;;;16.07;4.80;;;;;;;18.39;53.66;99774.88;5071540;28;20189;-64
2022/10/26 03:26:03;;;;;;;19.80;4.50;;;;;;;18.26;54.01;99769.75;5071741;28;20192;-64
2022/10/26 03:28:30;;;;;;;21.53;4.90;;;;;;;18.26;54.35;99775.13;5071243;28;20192;-65
2022/10/26 03:30:56;;;;;;;15.93;4.27;;;;;;;18.27;54.21;99776.75;5071272;28;20728;-64
2022/10/26 03:33:23;;;;;;;14.00;4.90;;;;;;;18.31;54.36;99770.66;5071297;28;20651;-64
2022/10/26 03:35:54;;;;;;;18.40;4.73;;;;;;;18.26;54.70;99775.91;5071114;28;20282;-64
2022/10/26 03:38:22;;;;;;;17.20;4.67;;;;;;;18.28;54.79;99776.50;5071656;28;20190;-64
2022/10/26 03:40:49;;;;;;;12.47;5.17;;;;;;;18.18;55.15;99773.59;5071283;28;20196;-64
2022/10/26 03:43:16;;;;;;;19.40;5.43;;;;;;;18.24;55.03;99777.22;5074848;28;20230;-64
2022/10/26 03:45:42;;;;;;;15.33;5.20;;;;;;;18.21;54.99;99783.09;5074693;28;20744;-64
2022/10/26 03:48:09;;;;;;;11.50;5.13;;;;;;;18.18;54.95;99788.94;5074707;28;20615;-64
2022/10/26 03:50:36;;;;;;;12.37;4.53;;;;;;;18.11;55.19;99796.31;5074874;28;20254;-64
2022/10/26 03:53:02;;;;;;;12.63;4.70;;;;;;;17.99;55.92;99790.97;5074855;28;20192;-65
2022/10/26 03:55:30;;;;;;;14.87;4.87;;;;;;;18.10;55.51;99795.50;5074703;28;20297;-65
2022/10/26 03:57:57;;;;;;;19.40;4.40;;;;;;;18.11;55.32;99799.00;5074505;28;20196;-64
2022/10/26 04:00:24;;;;;;;16.50;4.87;;;;;;;17.97;55.57;99795.72;5074707;28;20757;-64
2022/10/26 04:02:55;;;;;;;14.47;4.60;;;;;;;17.94;55.73;99798.09;5073766;28;20204;-64
2022/10/26 04:05:22;;;;;;;22.43;5.73;;;;;;;17.80;56.18;99799.41;5074982;28;20193;-64
2022/10/26 04:07:52;;;;;;;12.43;4.50;;;;;;;17.83;56.36;99812.34;5074363;28;20204;-64
2022/10/26 04:10:19;;;;;;;15.63;5.17;;;;;;;17.69;56.70;99817.16;5074722;28;20199;-64
2022/10/26 04:12:47;;;;;;;8.33;4.80;;;;;;;17.59;56.89;99805.34;5075216;28;20289;-64
2022/10/26 04:15:15;;;;;;;10.53;5.07;;;;;;;17.58;56.91;99809.91;5074679;28;20278;-64
2022/10/26 04:17:41;;;;;;;14.67;5.17;;;;;;;17.58;56.96;99820.66;5074518;28;20196;-64
2022/10/26 04:20:09;;;;;;;32.63;5.83;;;;;;;17.61;56.76;99820.19;5074340;28;20192;-64
2022/10/26 04:22:36;;;;;;;16.93;5.33;;;;;;;17.49;56.73;99815.84;5074377;28;20288;-64
2022/10/26 04:25:03;;;;;;;11.87;4.80;;;;;;;17.33;56.98;99816.50;5074269;28;20192;-64
2022/10/26 04:27:30;;;;;;;13.90;5.23;;;;;;;17.25;57.14;99822.22;5074370;28;20192;-65
2022/10/26 04:29:58;;;;;;;11.33;4.13;;;;;;;17.15;57.69;99817.41;5059062;28;20242;-65
2022/10/26 04:32:25;;;;;;;11.27;4.87;;;;;;;17.24;58.68;99824.09;5053831;28;20196;-64
2022/10/26 04:34:53;;;;;;;9.23;4.63;;;;;;;17.31;58.71;99829.38;5053909;28;20220;-64
2022/10/26 04:37:19;;;;;;;19.10;4.87;;;;;;;17.28;58.86;99824.44;5054116;28;20197;-64
2022/10/26 04:39:46;;;;;;;13.90;4.77;;;;;;;17.21;59.44;99829.09;5053674;28;20254;-64
2022/10/26 04:42:13;;;;;;;12.20;4.60;;;;;;;17.16;59.57;99837.03;5054043;28;20271;-64
2022/10/26 04:44:39;;;;;;;22.77;5.93;;;;;;;17.11;59.29;99831.53;5053863;28;20200;-64
2022/10/26 04:47:07;;;;;;;15.97;5.03;;;;;;;17.08;58.61;99840.03;5054169;28;20196;-63
2022/10/26 04:49:34;;;;;;;9.93;5.27;;;;;;;16.95;59.71;99845.59;5053913;28;20200;-64
2022/10/26 04:52:01;;;;;;;8.97;4.40;;;;;;;16.99;59.78;99846.78;5053816;28;20188;-64
2022/10/26 04:54:27;;;;;;;13.67;4.83;;;;;;;16.91;60.25;99842.53;5052956;28;20253;-65
2022/10/26 04:56:54;;;;;;;10.77;4.57;;;;;;;16.90;60.79;99848.97;5053684;28;20197;-64
2022/10/26 04:59:21;;;;;;;10.23;4.37;;;;;;;16.92;61.28;99854.09;5053310;28;20198;-64
2022/10/26 05:01:48;;;;;;;9.83;4.43;;;;;;;17.02;62.14;99851.69;5053573;28;20653;-64
2022/10/26 05:04:16;;;;;;;14.70;5.37;;;;;;;17.05;62.45;99853.91;5053479;28;20627;-64
2022/10/26 05:06:43;;;;;;;25.27;6.20;;;;;;;17.08;62.75;99858.81;5053404;28;20195;-65
2022/10/26 05:09:09;;;;;;;22.33;5.00;;;;;;;17.21;62.41;99850.56;5054254;28;20196;-64
2022/10/26 05:11:36;;;;;;;15.37;5.10;;;;;;;17.39;61.80;99847.81;5053220;28;20221;-63
2022/10/26 05:14:03;;;;;;;16.07;5.37;;;;;;;17.53;61.41;99858.16;5052829;28;20246;-64
2022/10/26 05:16:29;;;;;;;15.43;4.67;;;;;;;17.64;60.99;99854.63;5052815;28;20242;-64
2022/10/26 05:18:56;;;;;;;25.43;5.37;;;;;;;17.86;60.37;99860.25;5053233;28;20188;-63
2022/10/26 05:21:24;;;;;;;17.00;4.60;;;;;;;18.06;59.38;99858.03;5053161;28;20196;-63
2022/10/26 05:23:54;;;;;;;20.13;5.57;;;;;;;18.36;58.83;99869.47;5053194;28;20192;-66
2022/10/26 05:26:20;;;;;;;13.00;4.57;;;;;;;18.70;57.93;99879.34;5067026;28;20627;-68
2022/10/26 05:28:47;;;;;;;13.73;4.50;;;;;;;18.91;56.57;99886.75;5072593;28;20732;-67
2022/10/26 05:31:14;;;;;;;11.80;4.40;;;;;;;19.22;55.75;99884.38;5072859;28;20200;-69
2022/10/26 05:33:41;;;;;;;21.83;4.60;;;;;;;19.40;55.22;99894.19;5073839;28;20187;-69
2022/10/26 05:36:08;;;;;;;17.87;5.20;;;;;;;19.61;54.82;99888.84;5072426;28;20219;-68
2022/10/26 05:38:36;;;;;;;17.27;4.83;;;;;;;19.80;54.19;99886.72;5072740;28;20261;-68
2022/10/26 05:41:03;;;;;;;17.47;6.10;;;;;;;20.01;53.71;99894.09;5068295;28;20261;-68
2022/10/26 05:43:29;;;;;;;21.50;6.10;;;;;;;20.24;53.92;99889.34;5071497;28;20203;-69
2022/10/26 05:45:56;;;;;;;14.60;5.70;;;;;;;20.55;52.84;99901.34;5070556;28;20200;-69
2022/10/26 05:48:23;;;;;;;19.83;6.47;;;;;;;20.75;51.44;99896.22;5069799;28;20196;-68
2022/10/26 05:50:49;;;;;;;17.73;5.30;;;;;;;20.97;51.20;99899.72;5071809;28;20247;-68
2022/10/26 05:53:16;;;;;;;36.47;6.63;;;;;;;21.22;50.63;99905.41;5071792;28;20196;-68
2022/10/26 05:55:45;;;;;;;15.97;5.60;;;;;;;21.75;50.96;99905.38;5071535;28;20224;-73
2022/10/26 05:58:13;;;;;;;27.60;7.80;;;;;;;22.03;47.41;99905.06;5071505;28;20196;-72
2022/10/26 06:00:50;;;;;;;22.73;6.90;;;;;;;22.24;49.01;99911.41;5073309;28;20261;-72
2022/10/26 06:03:30;;;;;;;15.27;5.93;;;;;;;22.53;47.05;99916.22;5073488;28;20249;-72
2022/10/26 06:05:58;;;;;;;14.50;5.97;;;;;;;22.64;45.57;99922.50;5071816;28;20192;-75
2022/10/26 06:08:27;;;;;;;15.37;6.03;;;;;;;22.63;45.53;99919.00;5071425;28;20667;-74
2022/10/26 06:10:58;;;;;;;28.17;5.33;;;;;;;22.79;46.59;99912.53;5072084;28;20244;-73
2022/10/26 06:13:25;;;;;;;23.10;5.77;;;;;;;23.26;45.37;99926.00;5072182;28;20638;-78
2022/10/26 06:16:14;;;;;;;27.67;5.43;;;;;;;23.63;45.21;99943.72;5071561;28;20753;-75
2022/10/26 06:19:00;;;;;;;14.60;5.07;;;;;;;23.95;42.53;99943.47;5069344;28;20262;-72
2022/10/26 06:21:40;;;;;;;13.30;4.73;;;;;;;23.81;44.19;99940.44;5071909;28;20188;-73
2022/10/26 06:24:13;;;;;;;19.30;4.87;;;;;;;24.02;42.65;99942.09;5072416;28;20188;-72
2022/10/26 06:26:52;;;;;;;12.07;4.17;;;;;;;24.41;43.16;99936.91;5072463;28;20196;-76
2022/10/26 06:29:29;;;;;;;43.63;8.03;;;;;;;24.57;41.51;99944.75;5072626;28;20189;-75
2022/10/26 06:31:56;;;;;;;21.87;4.40;;;;;;;24.88;41.35;99946.28;5064973;28;20262;-75
2022/10/26 06:34:27;;;;;;;18.97;4.37;;;;;;;25.13;39.71;99956.25;5052074;28;20192;-77
2022/10/26 06:36:57;;;;;;;24.13;5.13;;;;;;;25.16;39.48;99957.59;5063871;28;20284;-82
2022/10/26 06:39:27;;;;;;;14.37;4.20;;;;;;;25.05;40.31;99956.81;5071513;28;20195;-77
2022/10/26 06:41:57;;;;;;;10.07;3.80;;;;;;;25.54;39.44;99956.84;5068315;28;20621;-79
2022/10/26 06:44:25;;;;;;;24.17;5.00;;;;;;;25.75;39.00;99951.00;5068094;28;20191;-77
2022/10/26 06:46:59;;;;;;;35.23;6.20;;;;;;;25.73;37.95;99950.47;5071485;28;20632;-75
2022/10/26 06:49:31;;;;;;;14.87;5.53;;;;;;;25.32;38.18;99948.28;5072082;28;20593;-73
2022/10/26 06:52:01;;;;;;;15.80;4.60;;;;;;;25.41;38.53;99961.03;5071792;28;20212;-77
2022/10/26 06:54:40;;;;;;;11.33;4.80;;;;;;;25.68;37.48;99966.03;5071955;28;20617;-75
2022/10/26 06:57:11;;;;;;;9.13;3.80;;;;;;;25.88;37.20;99965.88;5072177;28;20253;-76
2022/10/26 06:59:42;;;;;;;21.93;4.40;;;;;;;25.97;38.23;99970.44;5071612;28;20660;-76
2022/10/26 07:02:09;;;;;;;18.93;4.43;;;;;;;26.28;35.91;99968.25;5071239;28;20184;-75
2022/10/26 07:04:36;;;;;;;13.10;4.30;;;;;;;26.27;35.50;99966.63;5058498;28;20261;-76
2022/10/26 07:07:03;;;;;;;12.17;4.20;;;;;;;26.33;35.80;99965.50;5071134;28;20207;-74
2022/10/26 07:09:30;;;;;;;13.20;3.90;;;;;;;26.13;36.07;99962.97;5071290;28;20196;-70
2022/10/26 07:11:56;;;;;;;14.73;3.67;;;;;;;25.76;36.58;99962.69;5071443;28;20235;-72
2022/10/26 07:14:25;;;;;;;20.17;3.87;;;;;;;25.35;37.55;99967.56;5071885;28;20281;-76
2022/10/26 07:16:52;;;;;;;34.07;5.47;;;;;;;25.61;37.42;99960.06;5073338;28;20219;-73
2022/10/26 07:19:18;;;;;;;20.10;4.50;;;;;;;25.95;36.24;99972.66;5075277;28;20203;-72
2022/10/26 07:21:45;;;;;;;21.20;4.90;;;;;;;26.09;37.61;99961.91;5074793;28;20208;-71
2022/10/26 07:24:12;;;;;;;15.03;4.03;;;;;;;26.23;35.65;99969.13;5075485;28;20192;-72
2022/10/26 07:26:38;;;;;;;14.17;4.07;;;;;;;26.17;35.84;99978.44;5075130;28;20265;-74
2022/10/26 07:29:05;;;;;;;10.00;4.37;;;;;;;26.28;35.70;99971.81;5074710;28;20192;-72
2022/10/26 07:31:33;;;;;;;31.67;4.63;;;;;;;26.35;35.27;99968.75;5071289;28;20745;-71
2022/10/26 07:34:00;;;;;;;23.73;4.53;;;;;;;26.29;35.17;99972.63;5075343;28;20196;-70
2022/10/26 07:36:28;;;;;;;17.77;4.10;;;;;;;26.44;36.64;99975.19;5074444;28;20643;-73
2022/10/26 07:38:55;;;;;;;11.10;4.73;;;;;;;26.69;35.34;99977.69;5074881;28;20196;-73
2022/10/26 07:41:22;;;;;;;15.73;4.97;;;;;;;26.77;34.59;99974.31;5074565;28;20740;-72
2022/10/26 07:43:49;;;;;;;12.37;4.20;;;;;;;26.53;35.31;99974.28;5074280;28;20245;-73
2022/10/26 07:46:16;;;;;;;15.27;4.30;;;;;;;26.39;35.17;99972.53;5075012;28;20227;-74
2022/10/26 07:48:44;;;;;;;14.20;5.27;;;;;;;26.44;35.52;99975.19;5074891;28;20208;-72
2022/10/26 07:51:13;;;;;;;19.57;4.60;;;;;;;26.47;34.75;99947.38;5074638;28;20222;-70
2022/10/26 07:53:39;;;;;;;16.00;4.70;;;;;;;26.57;35.38;99969.06;5074577;28;20619;-72
2022/10/26 07:56:07;;;;;;;23.93;4.97;;;;;;;26.65;34.87;99957.56;5074775;28;20296;-76
2022/10/26 07:58:35;;;;;;;13.57;4.27;;;;;;;26.81;34.72;99965.28;5074806;28;20273;-71
2022/10/26 08:01:06;;;;;;;11.93;4.10;;;;;;;27.04;34.18;99969.09;5074312;28;20203;-73
2022/10/26 08:03:33;;;;;;;35.27;6.00;;;;;;;27.03;34.45;99970.22;5074373;28;20218;-72
2022/10/26 08:06:02;;;;;;;15.90;3.67;;;;;;;27.35;34.10;99971.16;5074208;28;20608;-72
2022/10/26 08:08:29;;;;;;;10.97;4.50;;;;;;;27.23;34.15;99973.50;5061814;28;20192;-81
2022/10/26 08:10:56;;;;;;;44.47;5.87;;;;;;;27.42;33.97;99973.53;5067395;28;20675;-72
2022/10/26 08:13:23;;;;;;;78.57;7.57;;;;;;;27.68;34.47;99974.78;5073896;28;20635;-72
2022/10/26 08:15:49;;;;;;;5.27;3.50;;;;;;;28.18;33.90;99971.28;5074462;28;20219;-74
2022/10/26 08:18:16;;;;;;;14.73;3.77;;;;;;;28.12;32.98;99972.44;5073862;28;20639;-72
2022/10/26 08:20:43;;;;;;;13.50;3.90;;;;;;;28.03;33.54;99968.78;5074745;28;20245;-72
2022/10/26 08:23:11;;;;;;;11.43;3.20;;;;;;;28.33;33.19;99971.00;5071544;28;20204;-74
2022/10/26 08:25:38;;;;;;;5.97;3.07;;;;;;;28.48;32.08;99965.28;5072676;28;20196;-75
2022/10/26 08:28:05;;;;;;;13.23;4.10;;;;;;;28.34;32.21;99959.75;5066939;28;20653;-73
2022/10/26 08:30:32;;;;;;;17.50;3.50;;;;;;;28.42;32.49;99974.69;5071832;28;20192;-73
2022/10/26 08:33:00;;;;;;;13.80;4.10;;;;;;;28.45;32.70;99947.56;5073676;28;20672;-73
2022/10/26 08:35:27;;;;;;;7.77;3.37;;;;;;;28.75;32.08;99962.59;5073851;28;20618;-73
2022/10/26 08:37:54;;;;;;;11.70;6.77;;;;;;;28.97;31.69;99965.41;5074372;28;20204;-72
2022/10/26 08:40:27;;;;;;;11.67;3.50;;;;;;;28.80;31.70;99957.00;5073888;28;20628;-72
2022/10/26 08:43:01;;;;;;;10.20;3.47;;;;;;;28.70;31.69;99958.00;5074398;28;20192;-72
2022/10/26 08:45:33;;;;;;;15.47;3.00;;;;;;;28.82;30.81;99952.84;5073535;28;20269;-73
2022/10/26 08:48:04;;;;;;;10.87;3.17;;;;;;;28.70;31.85;99938.06;5073329;28;20226;-75
2022/10/26 08:50:35;;;;;;;12.03;3.40;;;;;;;28.85;31.13;99962.38;5073350;28;20184;-75
2022/10/26 08:53:08;;;;;;;7.13;2.90;;;;;;;28.75;31.26;99952.44;5073483;28;20707;-72
2022/10/26 08:55:42;;;;;;;10.00;3.40;;;;;;;28.67;31.08;99966.03;5072554;28;20643;-73
2022/10/26 08:58:16;;;;;;;24.90;3.70;;;;;;;28.82;31.00;99957.50;5073073;28;20180;-72
2022/10/26 09:00:44;;;;;;;8.77;3.20;;;;;;;28.90;30.42;99956.78;5072140;28;20900;-75
2022/10/26 09:03:14;;;;;;;15.00;3.37;;;;;;;28.82;31.26;99958.31;5072720;28;20196;-73
2022/10/26 09:05:50;;;;;;;12.93;2.67;;;;;;;28.90;29.22;99957.63;5073232;28;20693;-72
2022/10/26 09:08:28;;;;;;;15.07;2.67;;;;;;;29.02;29.60;99948.91;5073015;28;20188;-73
2022/10/26 09:11:06;;;;;;;7.57;2.60;;;;;;;28.64;29.99;99950.22;5073283;28;20377;-73
2022/10/26 09:13:42;;;;;;;7.47;2.60;;;;;;;28.78;29.95;99951.03;5072772;28;20191;-71
2022/10/26 09:16:20;;;;;;;6.33;2.20;;;;;;;29.03;29.38;99939.63;5073022;28;20204;-72
2022/10/26 09:19:00;;;;;;;8.67;2.63;;;;;;;29.07;29.95;99951.53;5072493;28;20249;-74
2022/10/26 09:21:40;;;;;;;7.27;2.50;;;;;;;29.39;29.70;99945.91;5072966;28;20188;-70
2022/10/26 09:24:14;;;;;;;6.10;2.70;;;;;;;29.51;29.15;99946.19;5076030;28;20199;-74
2022/10/26 09:26:53;;;;;;;8.63;3.03;;;;;;;29.61;29.57;99948.72;5072331;28;20273;-72
2022/10/26 09:29:23;;;;;;;7.00;2.70;;;;;;;29.52;29.95;99939.56;5072828;28;20194;-72
2022/10/26 09:31:50;;;;;;;5.97;2.60;;;;;;;29.76;29.45;99944.81;5072777;28;20656;-73
2022/10/26 09:34:28;;;;;;;8.03;2.70;;;;;;;29.66;29.26;99945.88;5072478;28;20329;-74
2022/10/26 09:36:55;;;;;;;6.50;2.37;;;;;;;29.73;28.36;99935.28;5072594;28;20287;-74
2022/10/26 09:39:31;;;;;;;6.57;1.90;;;;;;;29.70;27.78;99946.03;5054986;28;20573;-73
2022/10/26 09:42:03;;;;;;;6.77;2.70;;;;;;;29.52;28.88;99928.63;5070928;28;20581;-79
2022/10/26 09:44:34;;;;;;;7.93;2.00;;;;;;;29.57;28.96;99936.78;5063034;28;20196;-75
2022/10/26 09:47:06;;;;;;;3.17;1.70;;;;;;;29.60;29.23;99936.13;5072064;28;20196;-76
2022/10/26 09:49:41;;;;;;;3.63;2.23;;;;;;;29.77;29.70;99936.28;5072639;28;20237;-75
2022/10/26 09:52:08;;;;;;;5.27;2.20;;;;;;;29.86;28.31;99939.91;5072493;28;20233;-75
2022/10/26 09:54:35;;;;;;;16.93;2.33;;;;;;;29.86;27.49;99934.41;5072642;28;20632;-76
2022/10/26 09:57:04;;;;;;;4.50;2.20;;;;;;;29.86;29.26;99928.13;5072227;28;20285;-76
2022/10/26 09:59:36;;;;;;;2.43;1.83;;;;;;;29.73;27.83;99929.00;5071453;28;20200;-74
2022/10/26 10:02:31;;;;;;;4.83;1.63;;;;;;;29.78;27.61;99929.69;5072523;28;20183;-74
2022/10/26 10:04:58;;;;;;;1.90;1.80;;;;;;;29.74;29.16;99925.94;5072050;28;20637;-75
2022/10/26 10:07:24;;;;;;;6.93;2.40;;;;;;;29.53;28.79;99913.84;5072095;28;20192;-81
2022/10/26 10:10:07;;;;;;;3.80;1.63;;;;;;;29.43;27.77;99911.31;5072359;28;20196;-81
2022/10/26 10:12:35;;;;;;;6.73;2.10;;;;;;;29.27;28.35;99910.03;5072184;28;20597;-75
2022/10/26 10:15:02;;;;;;;16.60;2.83;;;;;;;29.45;29.74;99909.09;5071932;28;20200;-76
2022/10/26 10:17:29;;;;;;;49.90;5.00;;;;;;;29.58;28.01;99910.19;5072220;28;20597;-75
2022/10/26 10:20:11;;;;;;;26.77;2.43;;;;;;;29.24;28.56;99910.69;5072476;28;20188;-75
2022/10/26 10:22:56;;;;;;;6.23;2.23;;;;;;;29.18;27.88;99890.00;5073355;28;20230;-75
2022/10/26 10:25:33;;;;;;;7.27;2.10;;;;;;;28.95;28.54;99899.25;5072390;28;20196;-75
2022/10/26 10:28:03;;;;;;;9.77;2.93;;;;;;;28.66;29.18;99898.75;5072385;28;20245;-75
2022/10/26 10:30:32;;;;;;;10.20;3.60;;;;;;;28.57;28.96;99895.94;5052312;28;20196;-75
2022/10/26 10:33:07;;;;;;;40.83;4.50;;;;;;;28.58;28.81;99896.75;5052083;28;20655;-75
2022/10/26 10:35:33;;;;;;;2.80;1.63;;;;;;;28.42;28.97;99898.16;5060670;28;20191;-76
2022/10/26 10:38:00;;;;;;;7.63;2.40;;;;;;;28.30;29.30;99879.47;5071758;28;20788;-75
2022/10/26 10:40:30;;;;;;;31.30;4.77;;;;;;;28.34;30.13;99882.44;5071695;28;20678;-76
2022/10/26 10:43:07;;;;;;;4.33;2.27;;;;;;;28.52;29.36;99881.56;5072110;28;20191;-76
2022/10/26 10:45:36;;;;;;;6.13;2.00;;;;;;;28.59;29.26;99884.69;5071932;28;20277;-76
2022/10/26 10:48:05;;;;;;;11.13;1.97;;;;;;;28.53;29.08;99877.69;5072166;28;20346;-76
2022/10/26 10:50:33;;;;;;;87.27;8.47;;;;;;;28.61;30.03;99886.00;5071646;28;20188;-77
2022/10/26 10:53:18;;;;;;;7.57;2.30;;;;;;;28.70;28.87;99872.41;5076022;28;20202;-76
2022/10/26 10:55:58;;;;;;;5.40;2.03;;;;;;;28.73;28.97;99858.97;5076075;28;20230;-75
2022/10/26 10:58:34;;;;;;;9.87;2.00;;;;;;;28.65;29.09;99865.16;5075693;28;20683;-74
2022/10/26 11:01:01;;;;;;;6.97;1.90;;;;;;;28.48;29.35;99856.75;5075993;28;20266;-75
2022/10/26 11:03:52;;;;;;;7.07;1.77;;;;;;;28.69;28.86;99860.69;5075692;28;20199;-76
2022/10/26 11:06:22;;;;;;;5.13;1.80;;;;;;;28.75;28.82;99855.94;5075801;28;20253;-76
2022/10/26 11:08:52;;;;;;;5.03;1.83;;;;;;;28.69;28.93;99855.22;5075719;28;20192;-76
2022/10/26 11:11:22;;;;;;;13.20;2.27;;;;;;;28.77;28.91;99850.94;5075685;28;20294;-76
2022/10/26 11:13:55;;;;;;;3.50;1.50;;;;;;;28.58;28.66;99853.81;5075529;28;20184;-75
2022/10/26 11:16:28;;;;;;;34.03;4.03;;;;;;;28.41;29.17;99847.31;5076038;28;20244;-76
2022/10/26 11:19:03;;;;;;;4.80;1.80;;;;;;;28.31;29.43;99844.78;5075523;28;20184;-77
2022/10/26 11:21:32;;;;;;;5.33;1.90;;;;;;;28.44;28.83;99841.25;5074588;28;20215;-76
2022/10/26 11:24:12;;;;;;;9.90;2.30;;;;;;;28.64;29.16;99849.03;5064244;28;20199;-77
2022/10/26 11:26:44;;;;;;;13.73;1.80;;;;;;;28.88;28.96;99841.41;5075308;28;20192;-73
2022/10/26 11:29:22;;;;;;;1.97;1.37;;;;;;;28.94;28.11;99840.16;5070220;28;20249;-74
2022/10/26 11:31:57;;;;;;;2.90;1.63;;;;;;;28.66;28.59;99827.66;5074741;28;20188;-72
2022/10/26 11:34:31;;;;;;;2.73;1.40;;;;;;;28.72;28.22;99842.84;5071875;28;20242;-76
2022/10/26 11:37:04;;;;;;;5.10;1.60;;;;;;;28.61;28.15;99834.06;5055628;28;20217;-73
2022/10/26 11:39:38;;;;;;;4.43;1.67;;;;;;;28.61;28.81;99830.50;5055775;28;20185;-78
2022/10/26 11:42:13;;;;;;;3.37;1.70;;;;;;;28.62;28.27;99832.13;5055521;28;20200;-73